EW5447 Weather Reports


Display with metric or nautical units.
time (UTC)temp
F
wind
direction
speed
MPH
gust
MPH
rain 1hr
in
rain 24hr
in
rain mn
in
humidity
%
barometer
mb
20210127034627 34 273 1.0 3.0 0.00 0.06 0.06 90 1000.2
20210127033110 34 273 2.0 4.0 0.01 0.06 0.06 90 1000.6
20210127031601 34 273 2.0 6.0 0.01 0.06 0.06 89 1000.7
20210127030117 35 263 2.0 7.0 0.02 0.06 0.06 88 1000.9
20210127024702 36 216 2.0 4.0 0.03 0.06 0.06 87 1000.7
20210127023209 36 186 4.0 10.0 0.02 0.05 0.05 86 1000.7
20210127021543 36 189 1.0 4.0 0.02 0.05 0.05 86 1000.5
20210127020134 36 168 1.0 7.0 0.02 0.04 0.04 85 1000.4
20210127014654 37 165 1.0 7.0 0.01 0.03 0.03 83 1000.6
20210127013109 38 142 3.0 9.0 0.01 0.03 0.03 78 1000.5
20210127011548 38 171 6.0 14.0 0.01 0.03 0.03 75 1000.4
20210127010052 40 201 3.0 11.0 0.00 0.02 0.02 68 1000.1
20210127004619 41 148 6.0 15.0 0.00 0.02 0.02 64 1000.2
20210127003141 41 154 6.0 13.0 0.00 0.02 0.02 63 999.9
20210127001553 41 155 4.0 11.0 0.00 0.02 0.02 63 1000.0
20210127000116 41 163 3.0 9.0 0.00 0.02 0.02 63 1000.0
20210126234531 40 97 0.0 4.0 0.00 0.02 0.02 64 1000.1
20210126233256 40 161 1.0 8.0 0.00 0.02 0.02 66 1000.2
20210126231528 40 166 0.0 3.0 0.00 0.02 0.02 65 1000.4
20210126230045 39 47 0.0 3.0 0.00 0.02 0.02 71 1000.5
20210126224536 39 49 0.0 2.0 0.00 0.02 0.02 72 1000.7
20210126223022 39 49 0.0 2.0 0.01 0.02 0.02 72 1000.9
20210126221536 38 46 0.0 2.0 0.01 0.02 0.02 73 1001.2
20210126220024 38 46 0.0 2.0 0.01 0.02 0.02 78 1001.5
20210126214523 37 46 0.0 3.0 0.01 0.05 0.02 79 1001.9
20210126213007 37 74 1.0 2.0 0.00 0.04 0.01 79 1002.2
20210126211750 37 74 0.0 2.0 0.00 0.04 0.01 81 1002.7
20210126210229 36 74 0.0 3.0 0.00 0.04 0.01 82 1003.3
20210126204808 36 76 0.0 0.0 0.00 0.04 0.01 84 1003.6
20210126203209 35 76 0.0 0.0 0.00 0.04 0.01 85 1003.9
20210126201629 35 77 0.0 2.0 0.00 0.04 0.01 87 1004.4
20210126200120 34 78 0.0 1.0 0.00 0.04 0.01 87 1004.8
20210126194619 34 77 1.0 2.0 0.00 0.04 0.01 87 1005.5
20210126193048 34 59 0.0 0.0 0.00 0.04 0.01 89 1005.9
20210126191554 33 336 0.0 0.0 0.00 0.04 0.01 91 1006.4
20210126190114 33 336 0.0 0.0 0.00 0.04 0.01 92 1006.8
20210126184546 32 336 0.0 0.0 0.00 0.04 0.01 92 1007.3
20210126183049 31 336 0.0 0.0 0.00 0.04 0.01 92 1007.5
20210126181531 31 336 0.0 1.0 0.00 0.04 0.01 92 1007.8
20210126180039 31 336 0.0 3.0 0.00 0.04 0.01 92 1008.1
20210126174546 30 336 0.0 1.0 0.00 0.04 0.01 92 1008.5
20210126173019 30 336 0.0 0.0 0.00 0.04 0.01 92 1008.8
20210126171513 30 336 0.0 0.0 0.00 0.04 0.01 92 1009.1
20210126170139 30 336 0.0 0.0 0.00 0.04 0.01 92 1009.4
20210126164754 30 336 0.0 0.0 0.00 0.04 0.01 92 1010.0
20210126163059 30 336 0.0 0.0 0.00 0.04 0.01 92 1010.4
20210126161625 30 336 0.0 0.0 0.00 0.04 0.01 92 1010.8
20210126160127 30 336 0.0 1.0 0.00 0.04 0.01 92 1010.9
20210126154631 30 336 0.0 2.0 0.00 0.04 0.01 92 1011.1
20210126153105 30 336 0.0 2.0 0.00 0.04 0.01 93 1011.4
20210126151602 30 336 0.0 2.0 0.00 0.04 0.01 93 1011.8
20210126150148 30 335 0.0 2.0 0.00 0.04 0.01 93 1011.9
20210126144554 30 335 0.0 0.0 0.00 0.04 0.01 92 1012.0
20210126143102 30 335 0.0 2.0 0.00 0.04 0.01 92 1012.2
20210126141540 30 335 0.0 0.0 0.00 0.04 0.01 92 1012.3
20210126140101 29 335 0.0 0.0 0.00 0.04 0.01 92 1012.2
20210126134535 30 335 0.0 0.0 0.00 0.04 0.01 92 1012.4
20210126133100 30 335 0.0 0.0 0.00 0.04 0.01 92 1012.6
20210126131528 30 335 0.0 2.0 0.00 0.04 0.01 92 1012.7
20210126130133 30 334 0.0 1.0 0.00 0.04 0.01 92 1013.0
20210126124535 30 334 0.0 0.0 0.00 0.04 0.01 92 1013.0
20210126123027 30 334 0.0 2.0 0.00 0.04 0.01 92 1013.1
20210126121525 30 333 0.0 0.0 0.00 0.04 0.01 92 1013.1
20210126120034 30 333 0.0 2.0 0.00 0.04 0.01 92 1013.2
20210126114545 30 333 0.0 0.0 0.00 0.04 0.01 92 1013.2
20210126113035 30 333 0.0 0.0 0.00 0.04 0.01 92 1013.2
20210126111519 29 333 0.0 0.0 0.00 0.04 0.01 92 1013.3
20210126110022 29 333 0.0 1.0 0.01 0.04 0.01 92 1013.5
20210126104523 29 333 0.0 0.0 0.01 0.04 0.01 92 1013.5
20210126103020 28 333 0.0 1.0 0.01 0.04 0.01 92 1013.9
20210126101624 27 333 0.0 4.0 0.01 0.04 0.01 91 1013.9
20210126101522 27 333 0.0 4.0 0.01 0.04 0.01 91 1013.9
20210126100216 28 334 0.0 1.0 0.00 0.03 0.00 91 1013.7
20210126094621 28 334 0.0 0.0 0.00 0.03 0.00 92 1013.9
20210126093201 29 334 0.0 0.0 0.00 0.03 0.00 92 1014.0
20210126091630 29 334 0.0 0.0 0.00 0.03 0.00 92 1014.1
20210126090148 29 334 0.0 0.0 0.00 0.03 0.00 91 1014.2
20210126084619 29 334 0.0 0.0 0.00 0.03 0.00 91 1014.4
20210126083219 29 334 0.0 1.0 0.00 0.03 0.00 91 1014.5
20210126081739 29 334 0.0 1.0 0.00 0.03 0.00 91 1014.7
20210126080115 29 334 0.0 0.0 0.00 0.03 0.00 91 1014.6
20210126074548 29 334 0.0 0.0 0.00 0.03 0.03 91 1014.7
20210126073055 30 334 1.0 2.0 0.00 0.03 0.03 91 1014.9
20210126071707 30 334 0.0 1.0 0.00 0.03 0.03 91 1014.8
20210126070125 31 334 0.0 1.0 0.00 0.03 0.03 91 1014.6
20210126064603 31 334 0.0 0.0 0.00 0.03 0.03 91 1014.7
20210126063111 31 334 0.0 0.0 0.00 0.03 0.03 92 1014.9
20210126061536 31 334 0.0 1.0 0.00 0.03 0.03 91 1014.9
20210126060158 30 334 0.0 0.0 0.00 0.03 0.03 91 1014.7
20210126054755 30 334 0.0 0.0 0.00 0.03 0.03 91 1014.8
20210126053100 30 334 0.0 2.0 0.00 0.03 0.03 91 1014.9
20210126051542 30 334 0.0 1.0 0.00 0.03 0.03 90 1014.8
20210126050130 30 334 1.0 2.0 0.00 0.03 0.03 90 1014.6
20210126044536 31 334 0.0 2.0 0.00 0.03 0.03 90 1014.5
20210126043116 31 334 1.0 3.0 0.00 0.03 0.03 90 1014.4
20210126041636 31 334 0.0 2.0 0.00 0.03 0.03 90 1014.3
20210126040155 32 334 0.0 2.0 0.00 0.03 0.03 90 1014.0